sensor_id;sensor_type;location;lat;lon;timestamp;temperature;humidity
16846;DHT22;8539;53.188;8.696;2023-05-07T00:00:54;9.70;99.90
16846;DHT22;8539;53.188;8.696;2023-05-07T00:03:24;9.80;99.90
16846;DHT22;8539;53.188;8.696;2023-05-07T00:05:50;9.70;99.90
16846;DHT22;8539;53.188;8.696;2023-05-07T00:08:19;9.60;99.90
16846;DHT22;8539;53.188;8.696;2023-05-07T00:10:46;9.70;99.90
16846;DHT22;8539;53.188;8.696;2023-05-07T00:13:12;9.70;99.90
16846;DHT22;8539;53.188;8.696;2023-05-07T00:15:38;9.70;99.90
16846;DHT22;8539;53.188;8.696;2023-05-07T00:18:04;9.70;99.90
16846;DHT22;8539;53.188;8.696;2023-05-07T00:20:30;9.60;99.90
16846;DHT22;8539;53.188;8.696;2023-05-07T00:22:56;9.60;99.90
16846;DHT22;8539;53.188;8.696;2023-05-07T00:25:23;9.60;99.90
16846;DHT22;8539;53.188;8.696;2023-05-07T00:27:49;9.60;99.90
16846;DHT22;8539;53.188;8.696;2023-05-07T00:30:15;9.60;99.90
16846;DHT22;8539;53.188;8.696;2023-05-07T00:32:41;9.50;99.90
16846;DHT22;8539;53.188;8.696;2023-05-07T00:35:08;9.50;99.90
16846;DHT22;8539;53.188;8.696;2023-05-07T00:37:34;9.50;99.90
16846;DHT22;8539;53.188;8.696;2023-05-07T00:40:00;9.40;99.90
16846;DHT22;8539;53.188;8.696;2023-05-07T00:42:29;9.40;99.90
16846;DHT22;8539;53.188;8.696;2023-05-07T00:44:55;9.50;99.90
16846;DHT22;8539;53.188;8.696;2023-05-07T00:47:21;9.50;99.90
16846;DHT22;8539;53.188;8.696;2023-05-07T00:49:48;9.50;99.90
16846;DHT22;8539;53.188;8.696;2023-05-07T00:52:16;9.50;99.90
16846;DHT22;8539;53.188;8.696;2023-05-07T00:54:42;9.60;99.90
16846;DHT22;8539;53.188;8.696;2023-05-07T00:57:11;9.40;99.90
16846;DHT22;8539;53.188;8.696;2023-05-07T00:59:37;9.40;99.90
16846;DHT22;8539;53.188;8.696;2023-05-07T01:02:04;9.40;99.90
16846;DHT22;8539;53.188;8.696;2023-05-07T01:04:30;9.40;99.90
16846;DHT22;8539;53.188;8.696;2023-05-07T01:06:57;9.40;99.90
16846;DHT22;8539;53.188;8.696;2023-05-07T01:09:24;9.40;99.90
16846;DHT22;8539;53.188;8.696;2023-05-07T01:11:51;9.40;99.90
16846;DHT22;8539;53.188;8.696;2023-05-07T01:14:18;9.30;99.90
16846;DHT22;8539;53.188;8.696;2023-05-07T01:16:44;9.30;99.90
16846;DHT22;8539;53.188;8.696;2023-05-07T01:19:17;9.20;99.90
16846;DHT22;8539;53.188;8.696;2023-05-07T01:21:49;9.20;99.90
16846;DHT22;8539;53.188;8.696;2023-05-07T01:24:22;9.20;99.90
16846;DHT22;8539;53.188;8.696;2023-05-07T01:26:53;9.10;99.90
16846;DHT22;8539;53.188;8.696;2023-05-07T01:29:24;9.10;99.90
16846;DHT22;8539;53.188;8.696;2023-05-07T01:31:57;9.10;99.90
16846;DHT22;8539;53.188;8.696;2023-05-07T01:34:32;9.00;99.90
16846;DHT22;8539;53.188;8.696;2023-05-07T01:37:03;8.90;99.90
16846;DHT22;8539;53.188;8.696;2023-05-07T01:39:37;9.00;99.90
16846;DHT22;8539;53.188;8.696;2023-05-07T01:42:09;9.00;99.90
16846;DHT22;8539;53.188;8.696;2023-05-07T01:44:40;8.90;99.90
16846;DHT22;8539;53.188;8.696;2023-05-07T01:47:13;8.90;99.90
16846;DHT22;8539;53.188;8.696;2023-05-07T01:49:44;8.90;99.90
16846;DHT22;8539;53.188;8.696;2023-05-07T01:52:15;8.90;99.90
16846;DHT22;8539;53.188;8.696;2023-05-07T01:54:46;8.90;99.90
16846;DHT22;8539;53.188;8.696;2023-05-07T01:57:17;8.90;99.90
16846;DHT22;8539;53.188;8.696;2023-05-07T01:59:48;8.90;99.90
16846;DHT22;8539;53.188;8.696;2023-05-07T02:02:19;8.90;99.90
16846;DHT22;8539;53.188;8.696;2023-05-07T02:04:50;8.90;99.90
16846;DHT22;8539;53.188;8.696;2023-05-07T02:07:21;8.90;99.90
16846;DHT22;8539;53.188;8.696;2023-05-07T02:09:52;8.90;99.90
16846;DHT22;8539;53.188;8.696;2023-05-07T02:12:23;8.90;99.90
16846;DHT22;8539;53.188;8.696;2023-05-07T02:14:54;8.80;99.90
16846;DHT22;8539;53.188;8.696;2023-05-07T02:17:25;8.80;99.90
16846;DHT22;8539;53.188;8.696;2023-05-07T02:19:56;8.80;99.90
16846;DHT22;8539;53.188;8.696;2023-05-07T02:22:27;8.80;99.90
16846;DHT22;8539;53.188;8.696;2023-05-07T02:24:58;8.80;99.90
16846;DHT22;8539;53.188;8.696;2023-05-07T02:27:29;8.80;99.90
16846;DHT22;8539;53.188;8.696;2023-05-07T02:30:00;8.80;99.90
16846;DHT22;8539;53.188;8.696;2023-05-07T02:32:30;8.70;99.90
16846;DHT22;8539;53.188;8.696;2023-05-07T02:35:01;8.60;99.90
16846;DHT22;8539;53.188;8.696;2023-05-07T02:37:33;8.60;99.90
16846;DHT22;8539;53.188;8.696;2023-05-07T02:40:04;8.60;99.90
16846;DHT22;8539;53.188;8.696;2023-05-07T02:42:35;8.60;99.90
16846;DHT22;8539;53.188;8.696;2023-05-07T02:45:06;8.60;99.90
16846;DHT22;8539;53.188;8.696;2023-05-07T02:47:37;8.60;99.90
16846;DHT22;8539;53.188;8.696;2023-05-07T02:50:09;8.60;99.90
16846;DHT22;8539;53.188;8.696;2023-05-07T02:52:40;8.60;99.90
16846;DHT22;8539;53.188;8.696;2023-05-07T02:55:11;8.70;99.90
16846;DHT22;8539;53.188;8.696;2023-05-07T02:57:42;8.60;99.90
16846;DHT22;8539;53.188;8.696;2023-05-07T03:00:15;8.70;99.90
16846;DHT22;8539;53.188;8.696;2023-05-07T03:02:46;8.70;99.90
16846;DHT22;8539;53.188;8.696;2023-05-07T03:05:17;8.70;99.90
16846;DHT22;8539;53.188;8.696;2023-05-07T03:07:48;8.70;99.90
16846;DHT22;8539;53.188;8.696;2023-05-07T03:10:19;8.70;99.90
16846;DHT22;8539;53.188;8.696;2023-05-07T03:12:50;8.70;99.90
16846;DHT22;8539;53.188;8.696;2023-05-07T03:15:21;8.70;99.90
16846;DHT22;8539;53.188;8.696;2023-05-07T03:17:52;8.60;99.90
16846;DHT22;8539;53.188;8.696;2023-05-07T03:20:23;8.60;99.90
16846;DHT22;8539;53.188;8.696;2023-05-07T03:22:54;8.60;99.90
16846;DHT22;8539;53.188;8.696;2023-05-07T03:25:25;8.60;99.90
16846;DHT22;8539;53.188;8.696;2023-05-07T03:27:56;8.70;99.90
16846;DHT22;8539;53.188;8.696;2023-05-07T03:30:27;8.70;99.90
16846;DHT22;8539;53.188;8.696;2023-05-07T03:32:58;8.70;99.90
16846;DHT22;8539;53.188;8.696;2023-05-07T03:35:25;8.70;99.90
16846;DHT22;8539;53.188;8.696;2023-05-07T03:37:52;8.70;99.90
16846;DHT22;8539;53.188;8.696;2023-05-07T03:40:20;8.70;99.90
16846;DHT22;8539;53.188;8.696;2023-05-07T03:42:47;8.70;99.90
16846;DHT22;8539;53.188;8.696;2023-05-07T03:45:15;8.70;99.90
16846;DHT22;8539;53.188;8.696;2023-05-07T03:47:42;8.70;99.90
16846;DHT22;8539;53.188;8.696;2023-05-07T03:50:10;8.70;99.90
16846;DHT22;8539;53.188;8.696;2023-05-07T03:52:37;8.70;99.90
16846;DHT22;8539;53.188;8.696;2023-05-07T03:55:05;8.70;99.90
16846;DHT22;8539;53.188;8.696;2023-05-07T03:57:32;8.70;99.90
16846;DHT22;8539;53.188;8.696;2023-05-07T03:59:59;8.60;99.90
16846;DHT22;8539;53.188;8.696;2023-05-07T04:02:30;8.60;99.90
16846;DHT22;8539;53.188;8.696;2023-05-07T04:05:01;8.60;99.90
16846;DHT22;8539;53.188;8.696;2023-05-07T04:07:32;8.70;99.90
16846;DHT22;8539;53.188;8.696;2023-05-07T04:10:03;8.70;99.90
16846;DHT22;8539;53.188;8.696;2023-05-07T04:12:34;8.70;99.90
16846;DHT22;8539;53.188;8.696;2023-05-07T04:15:05;8.70;99.90
16846;DHT22;8539;53.188;8.696;2023-05-07T04:17:36;8.70;99.90
16846;DHT22;8539;53.188;8.696;2023-05-07T04:20:13;8.70;99.90
16846;DHT22;8539;53.188;8.696;2023-05-07T04:22:44;8.70;99.90
16846;DHT22;8539;53.188;8.696;2023-05-07T04:25:16;8.70;99.90
16846;DHT22;8539;53.188;8.696;2023-05-07T04:27:47;8.80;99.90
16846;DHT22;8539;53.188;8.696;2023-05-07T04:30:14;8.70;99.90
16846;DHT22;8539;53.188;8.696;2023-05-07T04:32:40;8.70;99.90
16846;DHT22;8539;53.188;8.696;2023-05-07T04:35:07;8.70;99.90
16846;DHT22;8539;53.188;8.696;2023-05-07T04:37:34;8.70;99.90
16846;DHT22;8539;53.188;8.696;2023-05-07T04:40:00;8.60;99.90
16846;DHT22;8539;53.188;8.696;2023-05-07T04:42:28;8.60;99.90
16846;DHT22;8539;53.188;8.696;2023-05-07T04:44:54;8.60;99.90
16846;DHT22;8539;53.188;8.696;2023-05-07T04:47:23;8.70;99.90
16846;DHT22;8539;53.188;8.696;2023-05-07T04:49:49;8.70;99.90
16846;DHT22;8539;53.188;8.696;2023-05-07T04:52:15;8.70;99.90
16846;DHT22;8539;53.188;8.696;2023-05-07T04:54:42;8.80;99.90
16846;DHT22;8539;53.188;8.696;2023-05-07T04:57:08;8.80;99.90
16846;DHT22;8539;53.188;8.696;2023-05-07T04:59:34;8.80;99.90
16846;DHT22;8539;53.188;8.696;2023-05-07T05:02:01;8.60;99.90
16846;DHT22;8539;53.188;8.696;2023-05-07T05:04:30;8.90;99.90
16846;DHT22;8539;53.188;8.696;2023-05-07T05:06:57;8.90;99.90
16846;DHT22;8539;53.188;8.696;2023-05-07T05:09:23;8.90;99.90
16846;DHT22;8539;53.188;8.696;2023-05-07T05:11:49;8.90;99.90
16846;DHT22;8539;53.188;8.696;2023-05-07T05:14:15;8.90;99.90
16846;DHT22;8539;53.188;8.696;2023-05-07T05:16:41;8.90;99.90
16846;DHT22;8539;53.188;8.696;2023-05-07T05:19:08;8.90;99.90
16846;DHT22;8539;53.188;8.696;2023-05-07T05:21:34;8.90;99.90
16846;DHT22;8539;53.188;8.696;2023-05-07T05:24:00;8.90;99.90
16846;DHT22;8539;53.188;8.696;2023-05-07T05:26:26;9.00;99.90
16846;DHT22;8539;53.188;8.696;2023-05-07T05:28:52;9.00;99.90
16846;DHT22;8539;53.188;8.696;2023-05-07T05:31:18;9.00;99.90
16846;DHT22;8539;53.188;8.696;2023-05-07T05:33:44;9.10;99.90
16846;DHT22;8539;53.188;8.696;2023-05-07T05:36:10;9.10;99.90
16846;DHT22;8539;53.188;8.696;2023-05-07T05:38:37;9.10;99.90
16846;DHT22;8539;53.188;8.696;2023-05-07T05:41:03;9.20;99.90
16846;DHT22;8539;53.188;8.696;2023-05-07T05:43:30;9.20;99.90
16846;DHT22;8539;53.188;8.696;2023-05-07T05:45:57;9.20;99.90
16846;DHT22;8539;53.188;8.696;2023-05-07T05:48:23;9.20;99.90
16846;DHT22;8539;53.188;8.696;2023-05-07T05:50:49;9.60;99.90
16846;DHT22;8539;53.188;8.696;2023-05-07T05:53:15;9.30;99.90
16846;DHT22;8539;53.188;8.696;2023-05-07T05:55:42;9.30;99.90
16846;DHT22;8539;53.188;8.696;2023-05-07T05:58:09;9.30;99.90
16846;DHT22;8539;53.188;8.696;2023-05-07T06:00:35;9.30;99.90
16846;DHT22;8539;53.188;8.696;2023-05-07T06:03:03;9.60;99.90
16846;DHT22;8539;53.188;8.696;2023-05-07T06:05:29;9.20;99.90
16846;DHT22;8539;53.188;8.696;2023-05-07T06:07:55;9.20;99.90
16846;DHT22;8539;53.188;8.696;2023-05-07T06:10:21;9.20;99.90
16846;DHT22;8539;53.188;8.696;2023-05-07T06:12:48;9.30;99.90
16846;DHT22;8539;53.188;8.696;2023-05-07T06:15:14;9.30;99.90
16846;DHT22;8539;53.188;8.696;2023-05-07T06:17:40;9.30;99.90
16846;DHT22;8539;53.188;8.696;2023-05-07T06:20:07;9.40;99.90
16846;DHT22;8539;53.188;8.696;2023-05-07T06:22:33;9.30;99.90
16846;DHT22;8539;53.188;8.696;2023-05-07T06:24:59;9.40;99.90
16846;DHT22;8539;53.188;8.696;2023-05-07T06:27:26;9.40;99.90
16846;DHT22;8539;53.188;8.696;2023-05-07T06:29:54;9.40;99.90
16846;DHT22;8539;53.188;8.696;2023-05-07T06:32:20;9.40;99.90
16846;DHT22;8539;53.188;8.696;2023-05-07T06:34:46;9.40;99.90
16846;DHT22;8539;53.188;8.696;2023-05-07T06:37:13;9.40;99.90
16846;DHT22;8539;53.188;8.696;2023-05-07T06:39:39;9.50;99.90
16846;DHT22;8539;53.188;8.696;2023-05-07T06:42:05;9.40;99.90
16846;DHT22;8539;53.188;8.696;2023-05-07T06:44:31;9.50;99.90
16846;DHT22;8539;53.188;8.696;2023-05-07T06:46:57;9.50;99.90
16846;DHT22;8539;53.188;8.696;2023-05-07T06:49:24;9.60;99.90
16846;DHT22;8539;53.188;8.696;2023-05-07T06:51:50;9.60;99.90
16846;DHT22;8539;53.188;8.696;2023-05-07T06:54:16;9.60;99.90
16846;DHT22;8539;53.188;8.696;2023-05-07T06:59:33;9.60;99.90
16846;DHT22;8539;53.188;8.696;2023-05-07T07:01:59;9.60;99.90
16846;DHT22;8539;53.188;8.696;2023-05-07T07:04:25;9.80;99.90
16846;DHT22;8539;53.188;8.696;2023-05-07T07:06:53;9.70;99.90
16846;DHT22;8539;53.188;8.696;2023-05-07T07:09:22;9.80;99.90
16846;DHT22;8539;53.188;8.696;2023-05-07T07:11:48;9.80;99.90
16846;DHT22;8539;53.188;8.696;2023-05-07T07:14:15;9.70;99.90
16846;DHT22;8539;53.188;8.696;2023-05-07T07:16:41;9.80;99.90
16846;DHT22;8539;53.188;8.696;2023-05-07T07:19:08;9.80;99.90
16846;DHT22;8539;53.188;8.696;2023-05-07T07:21:35;9.90;99.90
16846;DHT22;8539;53.188;8.696;2023-05-07T07:24:01;10.00;99.90
16846;DHT22;8539;53.188;8.696;2023-05-07T07:26:27;10.00;99.90
16846;DHT22;8539;53.188;8.696;2023-05-07T07:28:53;9.90;99.90
16846;DHT22;8539;53.188;8.696;2023-05-07T07:31:19;10.00;99.90
16846;DHT22;8539;53.188;8.696;2023-05-07T07:33:46;10.00;99.90
16846;DHT22;8539;53.188;8.696;2023-05-07T07:36:12;10.00;99.90
16846;DHT22;8539;53.188;8.696;2023-05-07T07:38:38;10.00;99.90
16846;DHT22;8539;53.188;8.696;2023-05-07T07:41:05;10.10;99.90
16846;DHT22;8539;53.188;8.696;2023-05-07T07:43:31;10.10;99.90
16846;DHT22;8539;53.188;8.696;2023-05-07T07:45:57;10.10;99.90
16846;DHT22;8539;53.188;8.696;2023-05-07T07:48:23;10.20;99.90
16846;DHT22;8539;53.188;8.696;2023-05-07T07:50:50;10.20;99.90
16846;DHT22;8539;53.188;8.696;2023-05-07T07:53:19;10.30;99.90
16846;DHT22;8539;53.188;8.696;2023-05-07T07:55:45;10.40;99.90
16846;DHT22;8539;53.188;8.696;2023-05-07T07:58:11;10.40;99.90
16846;DHT22;8539;53.188;8.696;2023-05-07T08:00:37;10.50;99.90
16846;DHT22;8539;53.188;8.696;2023-05-07T08:03:04;10.60;99.90
16846;DHT22;8539;53.188;8.696;2023-05-07T08:05:34;10.60;99.90
16846;DHT22;8539;53.188;8.696;2023-05-07T08:08:00;10.60;99.90
16846;DHT22;8539;53.188;8.696;2023-05-07T08:10:26;10.70;99.90
16846;DHT22;8539;53.188;8.696;2023-05-07T08:12:52;10.60;99.90
16846;DHT22;8539;53.188;8.696;2023-05-07T08:15:18;10.70;99.90
16846;DHT22;8539;53.188;8.696;2023-05-07T08:17:44;10.70;99.90
16846;DHT22;8539;53.188;8.696;2023-05-07T08:20:10;10.80;99.90
16846;DHT22;8539;53.188;8.696;2023-05-07T08:22:36;10.90;99.90
16846;DHT22;8539;53.188;8.696;2023-05-07T08:25:03;10.90;99.90
16846;DHT22;8539;53.188;8.696;2023-05-07T08:27:29;11.00;99.90
16846;DHT22;8539;53.188;8.696;2023-05-07T08:29:55;11.00;99.90
16846;DHT22;8539;53.188;8.696;2023-05-07T08:32:22;11.10;99.90
16846;DHT22;8539;53.188;8.696;2023-05-07T08:34:48;11.20;99.90
16846;DHT22;8539;53.188;8.696;2023-05-07T08:37:14;11.30;99.90
16846;DHT22;8539;53.188;8.696;2023-05-07T08:39:40;11.40;99.90
16846;DHT22;8539;53.188;8.696;2023-05-07T08:42:06;11.50;99.90
16846;DHT22;8539;53.188;8.696;2023-05-07T08:44:34;11.60;99.90
16846;DHT22;8539;53.188;8.696;2023-05-07T08:47:06;11.50;99.90
16846;DHT22;8539;53.188;8.696;2023-05-07T08:49:33;11.40;99.90
16846;DHT22;8539;53.188;8.696;2023-05-07T08:52:00;11.40;99.90
16846;DHT22;8539;53.188;8.696;2023-05-07T08:54:28;11.40;99.90
16846;DHT22;8539;53.188;8.696;2023-05-07T08:56:55;11.30;99.90
16846;DHT22;8539;53.188;8.696;2023-05-07T08:59:21;11.40;99.90
16846;DHT22;8539;53.188;8.696;2023-05-07T09:01:47;11.40;99.90
16846;DHT22;8539;53.188;8.696;2023-05-07T09:04:13;11.40;99.90
16846;DHT22;8539;53.188;8.696;2023-05-07T09:06:40;11.40;99.90
16846;DHT22;8539;53.188;8.696;2023-05-07T09:09:07;11.40;99.90
16846;DHT22;8539;53.188;8.696;2023-05-07T09:11:33;11.40;99.90
16846;DHT22;8539;53.188;8.696;2023-05-07T09:14:00;11.40;99.90
16846;DHT22;8539;53.188;8.696;2023-05-07T09:16:29;11.30;99.90
16846;DHT22;8539;53.188;8.696;2023-05-07T09:18:58;11.30;99.90
16846;DHT22;8539;53.188;8.696;2023-05-07T09:21:24;11.30;99.90
16846;DHT22;8539;53.188;8.696;2023-05-07T09:23:51;11.30;99.90
16846;DHT22;8539;53.188;8.696;2023-05-07T09:26:18;11.30;99.90
16846;DHT22;8539;53.188;8.696;2023-05-07T09:28:44;11.30;99.90
16846;DHT22;8539;53.188;8.696;2023-05-07T09:31:12;11.30;99.90
16846;DHT22;8539;53.188;8.696;2023-05-07T09:33:39;11.40;99.90
16846;DHT22;8539;53.188;8.696;2023-05-07T09:36:06;11.30;99.90
16846;DHT22;8539;53.188;8.696;2023-05-07T09:38:34;11.40;99.90
16846;DHT22;8539;53.188;8.696;2023-05-07T09:41:08;11.40;99.90
16846;DHT22;8539;53.188;8.696;2023-05-07T09:43:35;11.50;99.90
16846;DHT22;8539;53.188;8.696;2023-05-07T09:46:14;11.60;99.90
16846;DHT22;8539;53.188;8.696;2023-05-07T09:48:42;11.50;99.90
16846;DHT22;8539;53.188;8.696;2023-05-07T09:51:18;11.50;99.90
16846;DHT22;8539;53.188;8.696;2023-05-07T09:53:48;11.60;99.90
16846;DHT22;8539;53.188;8.696;2023-05-07T09:56:16;11.60;99.90
16846;DHT22;8539;53.188;8.696;2023-05-07T09:58:54;11.70;99.90
16846;DHT22;8539;53.188;8.696;2023-05-07T10:01:21;11.80;99.90
16846;DHT22;8539;53.188;8.696;2023-05-07T10:03:49;11.90;99.90
16846;DHT22;8539;53.188;8.696;2023-05-07T10:06:17;11.80;99.90
16846;DHT22;8539;53.188;8.696;2023-05-07T10:08:44;11.70;99.90
16846;DHT22;8539;53.188;8.696;2023-05-07T10:11:10;11.60;99.90
16846;DHT22;8539;53.188;8.696;2023-05-07T10:13:36;11.60;99.90
16846;DHT22;8539;53.188;8.696;2023-05-07T10:16:04;11.60;99.90
16846;DHT22;8539;53.188;8.696;2023-05-07T10:18:31;11.70;99.90
16846;DHT22;8539;53.188;8.696;2023-05-07T10:21:04;11.80;99.90
16846;DHT22;8539;53.188;8.696;2023-05-07T10:23:33;11.90;99.90
16846;DHT22;8539;53.188;8.696;2023-05-07T10:26:02;12.10;99.90
16846;DHT22;8539;53.188;8.696;2023-05-07T10:28:33;12.10;99.90
16846;DHT22;8539;53.188;8.696;2023-05-07T10:31:47;12.20;99.90
16846;DHT22;8539;53.188;8.696;2023-05-07T10:33:55;12.30;99.90
16846;DHT22;8539;53.188;8.696;2023-05-07T10:36:22;12.30;99.90
16846;DHT22;8539;53.188;8.696;2023-05-07T10:38:49;12.20;99.90
16846;DHT22;8539;53.188;8.696;2023-05-07T10:41:16;12.20;99.90
16846;DHT22;8539;53.188;8.696;2023-05-07T10:43:45;12.20;99.90
16846;DHT22;8539;53.188;8.696;2023-05-07T10:46:18;12.20;99.90
16846;DHT22;8539;53.188;8.696;2023-05-07T10:51:27;12.20;99.90
16846;DHT22;8539;53.188;8.696;2023-05-07T10:56:38;12.30;99.90
16846;DHT22;8539;53.188;8.696;2023-05-07T11:01:52;12.60;99.90
16846;DHT22;8539;53.188;8.696;2023-05-07T11:04:19;12.80;99.90
16846;DHT22;8539;53.188;8.696;2023-05-07T11:07:26;13.00;99.90
16846;DHT22;8539;53.188;8.696;2023-05-07T11:15:07;13.70;99.90
16846;DHT22;8539;53.188;8.696;2023-05-07T11:17:58;14.10;99.90
16846;DHT22;8539;53.188;8.696;2023-05-07T11:26:08;14.90;99.90
16846;DHT22;8539;53.188;8.696;2023-05-07T11:28:41;14.90;99.90
16846;DHT22;8539;53.188;8.696;2023-05-07T11:31:09;14.80;99.90
16846;DHT22;8539;53.188;8.696;2023-05-07T11:33:37;14.80;99.90
16846;DHT22;8539;53.188;8.696;2023-05-07T11:36:05;14.80;99.90
16846;DHT22;8539;53.188;8.696;2023-05-07T11:38:35;14.70;99.90
16846;DHT22;8539;53.188;8.696;2023-05-07T11:41:01;14.70;99.90
16846;DHT22;8539;53.188;8.696;2023-05-07T11:43:29;14.80;99.90
16846;DHT22;8539;53.188;8.696;2023-05-07T11:45:58;14.80;99.90
16846;DHT22;8539;53.188;8.696;2023-05-07T11:48:30;14.80;99.90
16846;DHT22;8539;53.188;8.696;2023-05-07T11:51:00;14.80;99.90
16846;DHT22;8539;53.188;8.696;2023-05-07T11:53:37;14.80;99.90
16846;DHT22;8539;53.188;8.696;2023-05-07T11:56:21;14.80;99.90
16846;DHT22;8539;53.188;8.696;2023-05-07T11:58:48;14.80;99.90
16846;DHT22;8539;53.188;8.696;2023-05-07T12:01:15;14.80;99.90
16846;DHT22;8539;53.188;8.696;2023-05-07T12:03:43;15.00;99.90
16846;DHT22;8539;53.188;8.696;2023-05-07T12:06:12;15.20;99.90
16846;DHT22;8539;53.188;8.696;2023-05-07T12:08:40;15.20;99.90
16846;DHT22;8539;53.188;8.696;2023-05-07T12:11:08;15.10;99.90
16846;DHT22;8539;53.188;8.696;2023-05-07T12:13:34;15.00;99.90
16846;DHT22;8539;53.188;8.696;2023-05-07T12:16:01;15.10;99.90
16846;DHT22;8539;53.188;8.696;2023-05-07T12:18:29;15.20;99.90
16846;DHT22;8539;53.188;8.696;2023-05-07T12:20:55;15.20;99.90
16846;DHT22;8539;53.188;8.696;2023-05-07T12:23:22;15.20;99.90
16846;DHT22;8539;53.188;8.696;2023-05-07T12:25:48;15.20;99.90
16846;DHT22;8539;53.188;8.696;2023-05-07T12:28:16;15.30;99.90
16846;DHT22;8539;53.188;8.696;2023-05-07T12:30:44;15.40;99.90
16846;DHT22;8539;53.188;8.696;2023-05-07T12:33:10;15.40;99.90
16846;DHT22;8539;53.188;8.696;2023-05-07T12:35:41;15.50;99.90
16846;DHT22;8539;53.188;8.696;2023-05-07T12:38:08;15.50;99.90
16846;DHT22;8539;53.188;8.696;2023-05-07T12:40:40;15.50;99.90
16846;DHT22;8539;53.188;8.696;2023-05-07T12:43:06;15.40;99.90
16846;DHT22;8539;53.188;8.696;2023-05-07T12:45:41;15.30;99.90
16846;DHT22;8539;53.188;8.696;2023-05-07T12:48:10;15.20;99.90
16846;DHT22;8539;53.188;8.696;2023-05-07T12:53:05;15.20;99.90
16846;DHT22;8539;53.188;8.696;2023-05-07T12:55:32;15.30;99.90
16846;DHT22;8539;53.188;8.696;2023-05-07T12:58:29;15.40;99.90
16846;DHT22;8539;53.188;8.696;2023-05-07T13:00:57;15.70;99.90
16846;DHT22;8539;53.188;8.696;2023-05-07T13:03:28;15.90;99.90
16846;DHT22;8539;53.188;8.696;2023-05-07T13:05:57;16.00;99.90
16846;DHT22;8539;53.188;8.696;2023-05-07T13:08:35;15.90;99.90
16846;DHT22;8539;53.188;8.696;2023-05-07T13:11:12;15.80;99.90
16846;DHT22;8539;53.188;8.696;2023-05-07T13:13:39;16.00;99.90
16846;DHT22;8539;53.188;8.696;2023-05-07T13:16:07;16.20;99.90
16846;DHT22;8539;53.188;8.696;2023-05-07T13:18:34;16.40;99.90
16846;DHT22;8539;53.188;8.696;2023-05-07T13:21:00;16.40;99.90
16846;DHT22;8539;53.188;8.696;2023-05-07T13:23:28;16.50;99.90
16846;DHT22;8539;53.188;8.696;2023-05-07T13:25:54;16.50;99.90
16846;DHT22;8539;53.188;8.696;2023-05-07T13:28:24;16.50;99.90
16846;DHT22;8539;53.188;8.696;2023-05-07T13:30:50;16.60;99.90
16846;DHT22;8539;53.188;8.696;2023-05-07T13:33:17;16.60;99.90
16846;DHT22;8539;53.188;8.696;2023-05-07T13:35:44;16.60;99.90
16846;DHT22;8539;53.188;8.696;2023-05-07T13:38:10;16.70;99.90
16846;DHT22;8539;53.188;8.696;2023-05-07T13:40:36;16.80;99.90
16846;DHT22;8539;53.188;8.696;2023-05-07T13:43:02;16.90;99.90
16846;DHT22;8539;53.188;8.696;2023-05-07T13:45:29;17.20;99.90
16846;DHT22;8539;53.188;8.696;2023-05-07T13:47:56;17.40;99.90
16846;DHT22;8539;53.188;8.696;2023-05-07T13:50:23;17.60;99.90
16846;DHT22;8539;53.188;8.696;2023-05-07T13:52:49;17.70;99.90
16846;DHT22;8539;53.188;8.696;2023-05-07T13:55:19;17.90;99.90
16846;DHT22;8539;53.188;8.696;2023-05-07T13:57:46;18.10;99.90
16846;DHT22;8539;53.188;8.696;2023-05-07T14:00:13;18.30;99.90
16846;DHT22;8539;53.188;8.696;2023-05-07T14:02:40;18.50;99.90
16846;DHT22;8539;53.188;8.696;2023-05-07T14:05:07;18.60;99.90
16846;DHT22;8539;53.188;8.696;2023-05-07T14:07:33;18.50;99.90
16846;DHT22;8539;53.188;8.696;2023-05-07T14:09:59;18.40;99.90
16846;DHT22;8539;53.188;8.696;2023-05-07T14:12:27;18.40;99.90
16846;DHT22;8539;53.188;8.696;2023-05-07T14:14:53;18.10;99.90
16846;DHT22;8539;53.188;8.696;2023-05-07T14:17:19;18.10;99.90
16846;DHT22;8539;53.188;8.696;2023-05-07T14:19:46;18.20;99.90
16846;DHT22;8539;53.188;8.696;2023-05-07T14:22:13;18.20;99.90
16846;DHT22;8539;53.188;8.696;2023-05-07T14:24:40;18.40;99.90
16846;DHT22;8539;53.188;8.696;2023-05-07T14:27:07;18.60;99.90
16846;DHT22;8539;53.188;8.696;2023-05-07T14:29:33;18.60;99.90
16846;DHT22;8539;53.188;8.696;2023-05-07T14:32:02;18.60;99.90
16846;DHT22;8539;53.188;8.696;2023-05-07T14:34:31;18.20;99.90
16846;DHT22;8539;53.188;8.696;2023-05-07T14:36:59;18.10;99.90
16846;DHT22;8539;53.188;8.696;2023-05-07T14:39:25;18.00;99.90
16846;DHT22;8539;53.188;8.696;2023-05-07T14:41:52;18.00;99.90
16846;DHT22;8539;53.188;8.696;2023-05-07T14:44:27;18.10;99.90
16846;DHT22;8539;53.188;8.696;2023-05-07T14:46:54;18.10;99.90
16846;DHT22;8539;53.188;8.696;2023-05-07T14:49:20;18.20;99.90
16846;DHT22;8539;53.188;8.696;2023-05-07T14:51:46;18.30;99.90
16846;DHT22;8539;53.188;8.696;2023-05-07T14:54:13;18.00;99.90
16846;DHT22;8539;53.188;8.696;2023-05-07T14:56:40;17.80;99.90
16846;DHT22;8539;53.188;8.696;2023-05-07T14:59:07;17.50;99.90
16846;DHT22;8539;53.188;8.696;2023-05-07T15:01:35;17.40;99.90
16846;DHT22;8539;53.188;8.696;2023-05-07T15:04:03;17.30;99.90
16846;DHT22;8539;53.188;8.696;2023-05-07T15:06:30;17.30;99.90
16846;DHT22;8539;53.188;8.696;2023-05-07T15:08:57;17.20;99.90
16846;DHT22;8539;53.188;8.696;2023-05-07T15:32:28;17.90;99.90
16846;DHT22;8539;53.188;8.696;2023-05-07T15:34:54;18.30;99.90
16846;DHT22;8539;53.188;8.696;2023-05-07T15:37:20;18.30;99.90
16846;DHT22;8539;53.188;8.696;2023-05-07T15:39:46;18.10;99.90
16846;DHT22;8539;53.188;8.696;2023-05-07T15:42:13;18.00;99.90
16846;DHT22;8539;53.188;8.696;2023-05-07T15:44:39;17.90;99.90
16846;DHT22;8539;53.188;8.696;2023-05-07T15:47:06;17.80;99.90
16846;DHT22;8539;53.188;8.696;2023-05-07T15:49:32;17.80;99.90
16846;DHT22;8539;53.188;8.696;2023-05-07T15:51:58;17.80;99.90
16846;DHT22;8539;53.188;8.696;2023-05-07T15:54:24;17.70;99.90
16846;DHT22;8539;53.188;8.696;2023-05-07T15:56:50;17.60;99.90
16846;DHT22;8539;53.188;8.696;2023-05-07T15:59:16;17.50;99.90
16846;DHT22;8539;53.188;8.696;2023-05-07T16:01:42;17.40;99.90
16846;DHT22;8539;53.188;8.696;2023-05-07T16:04:10;17.40;99.90
16846;DHT22;8539;53.188;8.696;2023-05-07T16:06:36;17.30;99.90
16846;DHT22;8539;53.188;8.696;2023-05-07T16:09:02;17.20;99.90
16846;DHT22;8539;53.188;8.696;2023-05-07T16:11:28;17.10;99.90
16846;DHT22;8539;53.188;8.696;2023-05-07T16:13:58;17.00;99.90
16846;DHT22;8539;53.188;8.696;2023-05-07T16:16:26;16.90;99.90
16846;DHT22;8539;53.188;8.696;2023-05-07T16:18:55;16.70;99.90
16846;DHT22;8539;53.188;8.696;2023-05-07T16:21:21;16.60;99.90
16846;DHT22;8539;53.188;8.696;2023-05-07T16:23:47;16.50;99.90
16846;DHT22;8539;53.188;8.696;2023-05-07T16:26:18;16.30;99.90
16846;DHT22;8539;53.188;8.696;2023-05-07T16:28:44;16.10;99.90
16846;DHT22;8539;53.188;8.696;2023-05-07T16:31:10;16.00;99.90
16846;DHT22;8539;53.188;8.696;2023-05-07T16:33:36;16.00;99.90
16846;DHT22;8539;53.188;8.696;2023-05-07T16:36:02;16.00;99.90
16846;DHT22;8539;53.188;8.696;2023-05-07T16:38:29;16.00;99.90
16846;DHT22;8539;53.188;8.696;2023-05-07T16:40:58;16.00;99.90
16846;DHT22;8539;53.188;8.696;2023-05-07T16:43:24;16.00;99.90